createdAt,value
2019-05-15T00:00:48.124Z,0.00
2019-05-15T00:01:48.875Z,0.00
2019-05-15T00:02:48.177Z,0.00
2019-05-15T00:03:49.291Z,0.00
2019-05-15T00:04:49.221Z,0.00
2019-05-15T00:05:49.602Z,0.00
2019-05-15T00:06:48.578Z,0.00
2019-05-15T00:07:48.433Z,0.00
2019-05-15T00:08:47.985Z,0.00
2019-05-15T00:09:49.197Z,0.00
2019-05-15T00:10:48.393Z,0.00
2019-05-15T00:11:48.159Z,0.00
2019-05-15T00:12:48.708Z,0.00
2019-05-15T00:13:48.342Z,0.00
2019-05-15T00:14:48.438Z,0.00
2019-05-15T00:15:48.146Z,0.00
2019-05-15T00:16:48.216Z,0.00
2019-05-15T00:17:48.538Z,0.00
2019-05-15T00:18:48.262Z,0.00
2019-05-15T00:19:48.595Z,0.00
2019-05-15T00:20:49.386Z,0.00
2019-05-15T00:21:48.857Z,0.00
2019-05-15T00:22:48.467Z,0.00
2019-05-15T00:23:49.245Z,0.00
2019-05-15T00:24:48.666Z,0.00
2019-05-15T00:25:48.746Z,0.00
2019-05-15T00:26:48.078Z,0.00
2019-05-15T00:27:48.936Z,0.00
2019-05-15T00:28:48.001Z,0.00
2019-05-15T00:29:48.632Z,0.00
2019-05-15T00:30:48.147Z,0.00
2019-05-15T00:31:48.550Z,0.00
2019-05-15T00:32:48.619Z,0.00
2019-05-15T00:33:48.245Z,0.00
2019-05-15T00:34:48.683Z,0.00
2019-05-15T00:35:48.438Z,0.00
2019-05-15T00:36:48.725Z,0.00
2019-05-15T00:37:46.309Z,0.00
2019-05-15T00:38:48.273Z,0.00
2019-05-15T00:39:48.441Z,0.00
2019-05-15T00:40:46.200Z,0.00
2019-05-15T00:41:53.327Z,0.00
2019-05-15T00:42:46.135Z,0.00
2019-05-15T00:43:46.105Z,0.00
2019-05-15T00:44:46.065Z,0.00
2019-05-15T00:45:46.029Z,0.00
2019-05-15T00:46:45.996Z,0.00
2019-05-15T00:47:45.961Z,0.00
2019-05-15T00:48:45.931Z,0.00
2019-05-15T00:49:45.897Z,0.00
2019-05-15T00:50:45.864Z,0.00
2019-05-15T00:51:48.447Z,0.00
2019-05-15T00:52:45.781Z,0.00
2019-05-15T00:53:48.149Z,0.00
2019-05-15T00:54:45.716Z,0.00
2019-05-15T00:55:45.684Z,0.00
2019-05-15T00:56:45.646Z,0.00
2019-05-15T00:57:45.611Z,0.00
2019-05-15T00:58:45.571Z,0.00
2019-05-15T00:59:45.545Z,0.00
2019-05-15T01:00:45.500Z,0.00
2019-05-15T01:01:45.470Z,0.00
2019-05-15T01:02:45.432Z,0.00
2019-05-15T01:03:45.391Z,0.00
2019-05-15T01:04:45.357Z,0.00
2019-05-15T01:05:45.334Z,0.00
2019-05-15T01:06:45.287Z,0.00
2019-05-15T01:07:45.261Z,0.00
2019-05-15T01:08:45.222Z,0.00
2019-05-15T01:09:45.180Z,0.00
2019-05-15T01:10:45.142Z,0.00
2019-05-15T01:11:45.107Z,0.00
2019-05-15T01:12:45.074Z,0.00
2019-05-15T01:13:45.041Z,0.00
2019-05-15T01:14:45.007Z,0.00
2019-05-15T01:15:44.966Z,0.00
2019-05-15T01:16:44.933Z,0.00
2019-05-15T01:17:44.893Z,0.00
2019-05-15T01:18:44.865Z,0.00
2019-05-15T01:19:44.828Z,0.00
2019-05-15T01:20:44.803Z,0.00
2019-05-15T01:21:44.755Z,0.00
2019-05-15T01:22:44.723Z,0.00
2019-05-15T01:23:44.686Z,0.00
2019-05-15T01:24:44.647Z,0.00
2019-05-15T01:25:44.616Z,0.00
2019-05-15T01:26:44.586Z,0.00
2019-05-15T01:27:44.537Z,0.00
2019-05-15T01:28:44.512Z,0.00
2019-05-15T01:29:45.301Z,0.00
2019-05-15T01:30:44.441Z,0.00
2019-05-15T01:31:44.403Z,0.00
2019-05-15T01:32:44.363Z,0.00
2019-05-15T01:33:44.332Z,0.00
2019-05-15T01:34:44.298Z,0.00
2019-05-15T01:35:44.249Z,0.00
2019-05-15T01:36:44.228Z,0.00
2019-05-15T01:37:44.193Z,0.00
2019-05-15T01:38:44.151Z,0.00
2019-05-15T01:39:44.122Z,0.00
2019-05-15T01:40:44.079Z,0.00
2019-05-15T01:41:44.061Z,0.00
2019-05-15T01:42:44.002Z,0.00
2019-05-15T01:43:43.969Z,0.00
2019-05-15T01:44:43.945Z,0.00
2019-05-15T01:45:43.902Z,0.00
2019-05-15T01:46:43.869Z,0.00
2019-05-15T01:47:43.831Z,0.00
2019-05-15T01:48:43.805Z,0.00
2019-05-15T01:49:43.762Z,0.00
2019-05-15T01:50:43.717Z,0.00
2019-05-15T01:51:43.688Z,0.00
2019-05-15T01:52:43.652Z,0.00
2019-05-15T01:53:43.624Z,0.00
2019-05-15T01:54:43.583Z,0.00
2019-05-15T01:55:43.539Z,0.00
2019-05-15T01:56:43.508Z,0.00
2019-05-15T01:57:43.483Z,0.00
2019-05-15T01:58:43.443Z,0.00
2019-05-15T01:59:56.434Z,0.00
2019-05-15T02:00:43.364Z,0.00
2019-05-15T02:01:43.333Z,0.00
2019-05-15T02:02:43.292Z,0.00
2019-05-15T02:03:43.265Z,0.00
2019-05-15T02:04:43.222Z,0.00
2019-05-15T02:05:43.185Z,0.00
2019-05-15T02:06:43.147Z,0.00
2019-05-15T02:07:43.116Z,0.00
2019-05-15T02:08:43.075Z,0.00
2019-05-15T02:09:43.046Z,0.00
2019-05-15T02:10:43.007Z,0.00
2019-05-15T02:11:42.966Z,0.00
2019-05-15T02:12:42.927Z,0.00
2019-05-15T02:13:42.896Z,0.00
2019-05-15T02:14:42.873Z,0.00
2019-05-15T02:15:42.817Z,0.00
2019-05-15T02:16:42.794Z,0.00
2019-05-15T02:17:42.758Z,0.00
2019-05-15T02:18:42.730Z,0.00
2019-05-15T02:19:42.676Z,0.00
2019-05-15T02:20:42.645Z,0.00
2019-05-15T02:21:42.616Z,0.00
2019-05-15T02:22:42.759Z,0.00
2019-05-15T02:23:42.536Z,0.00
2019-05-15T02:24:42.506Z,0.00
2019-05-15T02:25:42.461Z,0.00
2019-05-15T02:26:42.431Z,0.00
2019-05-15T02:27:42.390Z,0.00
2019-05-15T02:28:42.355Z,0.00
2019-05-15T02:29:42.327Z,0.00
2019-05-15T02:30:42.299Z,0.00
2019-05-15T02:31:42.263Z,0.00
2019-05-15T02:32:42.212Z,0.00
2019-05-15T02:33:42.179Z,0.00
2019-05-15T02:34:42.142Z,0.00
2019-05-15T02:35:42.101Z,0.00
2019-05-15T02:36:42.073Z,0.00
2019-05-15T02:37:42.033Z,0.00
2019-05-15T02:38:42.006Z,0.00
2019-05-15T02:39:41.965Z,0.00
2019-05-15T02:40:41.932Z,0.00
2019-05-15T02:41:41.891Z,0.00
2019-05-15T02:42:41.850Z,0.00
2019-05-15T02:43:41.817Z,0.00
2019-05-15T02:44:41.785Z,0.00
2019-05-15T02:45:42.673Z,0.00
2019-05-15T02:46:41.709Z,0.00
2019-05-15T02:47:41.670Z,0.00
2019-05-15T02:48:41.640Z,0.00
2019-05-15T02:49:41.599Z,0.00
2019-05-15T02:50:41.559Z,0.00
2019-05-15T02:51:41.518Z,0.00
2019-05-15T02:52:45.200Z,0.00
2019-05-15T02:53:41.453Z,0.00
2019-05-15T02:54:41.424Z,0.00
2019-05-15T02:55:41.378Z,0.00
2019-05-15T02:56:41.345Z,0.00
2019-05-15T02:57:41.307Z,0.00
2019-05-15T02:58:41.275Z,0.00
2019-05-15T02:59:41.233Z,0.00
2019-05-15T03:00:48.404Z,0.00
2019-05-15T03:01:41.164Z,0.00
2019-05-15T03:02:41.761Z,0.00
2019-05-15T03:03:41.082Z,0.00
2019-05-15T03:04:41.050Z,0.00
2019-05-15T03:05:41.303Z,0.00
2019-05-15T03:06:40.979Z,0.00
2019-05-15T03:07:40.942Z,0.00
2019-05-15T03:08:40.908Z,0.00
2019-05-15T03:09:40.873Z,0.00
2019-05-15T03:10:41.161Z,0.00
2019-05-15T03:11:41.290Z,0.00
2019-05-15T03:12:41.290Z,0.00
2019-05-15T03:13:40.728Z,0.00
2019-05-15T03:14:40.690Z,0.00
2019-05-15T03:15:40.949Z,0.00
2019-05-15T03:16:40.616Z,0.00
2019-05-15T03:17:41.040Z,0.00
2019-05-15T03:18:40.541Z,4.00
2019-05-15T03:19:40.499Z,4.00
2019-05-15T03:20:40.471Z,0.00
2019-05-15T03:21:40.432Z,0.00
2019-05-15T03:22:40.787Z,4.00
2019-05-15T03:23:40.874Z,4.00
2019-05-15T03:24:40.329Z,4.00
2019-05-15T03:25:40.922Z,4.00
2019-05-15T03:26:40.247Z,4.00
2019-05-15T03:27:40.422Z,4.00
2019-05-15T03:28:40.175Z,8.00
2019-05-15T03:29:40.581Z,8.00
2019-05-15T03:31:13.426Z,8.00
2019-05-15T03:31:52.801Z,8.00
2019-05-15T03:32:52.313Z,8.00
2019-05-15T03:33:46.029Z,8.00
2019-05-15T03:34:46.834Z,12.00
2019-05-15T03:35:42.764Z,16.00
2019-05-15T03:36:45.158Z,16.00
2019-05-15T03:37:40.159Z,20.00
2019-05-15T03:38:39.842Z,20.00
2019-05-15T03:39:39.772Z,24.00
2019-05-15T03:40:40.122Z,24.00
2019-05-15T03:41:39.692Z,24.00
2019-05-15T03:42:40.046Z,28.00
2019-05-15T03:43:39.677Z,36.00
2019-05-15T03:44:39.603Z,36.00
2019-05-15T03:45:40.620Z,40.00
2019-05-15T03:46:40.009Z,40.00
2019-05-15T03:47:40.450Z,44.00
2019-05-15T03:48:40.484Z,52.00
2019-05-15T03:49:39.896Z,52.00
2019-05-15T03:50:40.529Z,60.00
2019-05-15T03:51:44.780Z,64.00
2019-05-15T03:52:39.959Z,68.00
2019-05-15T03:53:40.257Z,72.00
2019-05-15T03:54:39.590Z,76.00
2019-05-15T03:55:40.554Z,80.00
2019-05-15T03:56:39.650Z,84.00
2019-05-15T03:57:40.175Z,92.00
2019-05-15T03:58:40.069Z,96.00
2019-05-15T03:59:39.915Z,104.00
2019-05-15T04:00:39.771Z,108.00
2019-05-15T04:01:43.704Z,112.00
2019-05-15T04:02:39.676Z,116.00
2019-05-15T04:03:39.148Z,124.00
2019-05-15T04:04:39.227Z,132.00
2019-05-15T04:05:39.251Z,136.00
2019-05-15T04:06:39.266Z,140.00
2019-05-15T04:07:39.752Z,144.00
2019-05-15T04:08:39.291Z,152.00
2019-05-15T04:09:38.835Z,160.00
2019-05-15T04:10:39.971Z,164.00
2019-05-15T04:11:38.966Z,168.00
2019-05-15T04:12:40.329Z,172.00
2019-05-15T04:13:39.799Z,180.00
2019-05-15T04:14:39.452Z,184.00
2019-05-15T04:15:39.605Z,192.00
2019-05-15T04:16:39.293Z,196.00
2019-05-15T04:17:40.025Z,204.00
2019-05-15T04:18:39.605Z,212.00
2019-05-15T04:19:39.190Z,212.00
2019-05-15T04:20:40.409Z,220.00
2019-05-15T04:21:44.011Z,228.00
2019-05-15T04:22:40.055Z,228.00
2019-05-15T04:23:39.065Z,236.00
2019-05-15T04:24:39.427Z,240.00
2019-05-15T04:25:39.151Z,248.00
2019-05-15T04:26:39.498Z,248.00
2019-05-15T04:27:39.005Z,256.00
2019-05-15T04:28:41.216Z,260.00
2019-05-15T04:29:39.727Z,264.00
2019-05-15T04:30:39.304Z,272.00
2019-05-15T04:31:51.995Z,276.00
2019-05-15T04:32:39.807Z,280.00
2019-05-15T04:33:39.863Z,284.00
2019-05-15T04:34:39.688Z,288.00
2019-05-15T04:35:40.182Z,292.00
2019-05-15T04:36:39.090Z,300.00
2019-05-15T04:37:40.494Z,300.00
2019-05-15T04:38:39.227Z,304.00
2019-05-15T04:39:39.994Z,308.00
2019-05-15T04:40:39.665Z,316.00
2019-05-15T04:41:39.290Z,320.00
2019-05-15T04:42:39.864Z,324.00
2019-05-15T04:43:43.742Z,328.00
2019-05-15T04:44:39.525Z,332.00
2019-05-15T04:45:39.179Z,336.00
2019-05-15T04:46:39.198Z,336.00
2019-05-15T04:47:39.658Z,344.00
2019-05-15T04:48:39.784Z,348.00
2019-05-15T04:49:39.424Z,348.00
2019-05-15T04:50:39.956Z,352.00
2019-05-15T04:51:39.181Z,360.00
2019-05-15T04:52:39.430Z,364.00
2019-05-15T04:53:39.432Z,364.00
2019-05-15T04:54:40.146Z,368.00
2019-05-15T04:55:40.464Z,372.00
2019-05-15T04:56:39.915Z,376.00
2019-05-15T04:57:39.991Z,376.00
2019-05-15T04:58:39.533Z,380.00
2019-05-15T04:59:38.957Z,384.00
2019-05-15T05:00:39.812Z,388.00
2019-05-15T05:01:40.029Z,392.00
2019-05-15T05:02:39.469Z,396.00
2019-05-15T05:03:39.359Z,400.00
2019-05-15T05:04:38.818Z,404.00
2019-05-15T05:05:38.728Z,408.00
2019-05-15T05:06:38.684Z,412.00
2019-05-15T05:07:38.941Z,412.00
2019-05-15T05:08:39.459Z,416.00
2019-05-15T05:09:38.983Z,420.00
2019-05-15T05:10:39.359Z,420.00
2019-05-15T05:11:38.308Z,424.00
2019-05-15T05:12:40.987Z,428.00
2019-05-15T05:13:38.955Z,432.00
2019-05-15T05:14:38.921Z,432.00
2019-05-15T05:15:38.721Z,436.00
2019-05-15T05:16:38.998Z,436.00
2019-05-15T05:17:38.791Z,436.00
2019-05-15T05:18:40.477Z,440.00
2019-05-15T05:19:36.091Z,444.00
2019-05-15T05:20:38.112Z,448.00
2019-05-15T05:21:38.408Z,448.00
2019-05-15T05:22:35.972Z,452.00
2019-05-15T05:23:37.774Z,456.00
2019-05-15T05:24:35.931Z,460.00
2019-05-15T05:25:35.866Z,460.00
2019-05-15T05:26:38.038Z,464.00
2019-05-15T05:27:38.030Z,464.00
2019-05-15T05:28:37.789Z,468.00
2019-05-15T05:29:35.722Z,468.00
2019-05-15T05:30:35.688Z,468.00
2019-05-15T05:31:35.655Z,476.00
2019-05-15T05:32:38.758Z,476.00
2019-05-15T05:33:37.945Z,476.00
2019-05-15T05:34:35.546Z,480.00
2019-05-15T05:35:35.508Z,484.00
2019-05-15T05:36:35.472Z,484.00
2019-05-15T05:37:35.431Z,488.00
2019-05-15T05:38:35.395Z,488.00
2019-05-15T05:39:35.373Z,492.00
2019-05-15T05:40:35.330Z,496.00
2019-05-15T05:41:35.286Z,496.00
2019-05-15T05:42:35.246Z,500.00
2019-05-15T05:43:35.207Z,500.00
2019-05-15T05:44:35.174Z,504.00
2019-05-15T05:45:35.153Z,504.00
2019-05-15T05:46:35.101Z,508.00
2019-05-15T05:47:35.070Z,508.00
2019-05-15T05:48:35.037Z,508.00
2019-05-15T05:49:34.989Z,512.00
2019-05-15T05:50:34.969Z,516.00
2019-05-15T05:51:34.927Z,516.00
2019-05-15T05:52:34.889Z,520.00
2019-05-15T05:53:34.857Z,524.00
2019-05-15T05:54:34.814Z,524.00
2019-05-15T05:55:34.781Z,524.00
2019-05-15T05:56:34.749Z,528.00
2019-05-15T05:57:34.714Z,528.00
2019-05-15T05:58:34.669Z,532.00
2019-05-15T05:59:34.636Z,536.00
2019-05-15T06:00:34.607Z,540.00
2019-05-15T06:01:38.313Z,540.00
2019-05-15T06:02:44.727Z,540.00
2019-05-15T06:03:34.493Z,544.00
2019-05-15T06:04:34.458Z,548.00
2019-05-15T06:05:34.423Z,548.00
2019-05-15T06:06:34.385Z,552.00
2019-05-15T06:07:35.502Z,552.00
2019-05-15T06:08:34.312Z,556.00
2019-05-15T06:09:34.274Z,556.00
2019-05-15T06:10:34.247Z,560.00
2019-05-15T06:11:34.209Z,564.00
2019-05-15T06:12:34.188Z,564.00
2019-05-15T06:13:34.133Z,564.00
2019-05-15T06:14:34.094Z,568.00
2019-05-15T06:15:34.063Z,572.00
2019-05-15T06:16:34.028Z,572.00
2019-05-15T06:17:33.994Z,576.00
2019-05-15T06:18:33.951Z,572.00
2019-05-15T06:19:33.920Z,576.00
2019-05-15T06:20:33.885Z,580.00
2019-05-15T06:21:33.845Z,580.00
2019-05-15T06:22:33.809Z,584.00
2019-05-15T06:23:35.834Z,588.00
2019-05-15T06:24:33.740Z,588.00
2019-05-15T06:25:33.696Z,592.00
2019-05-15T06:26:33.669Z,592.00
2019-05-15T06:27:33.635Z,596.00
2019-05-15T06:28:33.594Z,596.00
2019-05-15T06:29:33.566Z,600.00
2019-05-15T06:30:33.549Z,600.00
2019-05-15T06:31:33.499Z,600.00
2019-05-15T06:32:33.461Z,604.00
2019-05-15T06:33:33.416Z,608.00
2019-05-15T06:34:33.384Z,608.00
2019-05-15T06:35:33.355Z,612.00
2019-05-15T06:36:33.321Z,612.00
2019-05-15T06:37:33.275Z,612.00
2019-05-15T06:38:33.256Z,616.00
2019-05-15T06:39:33.208Z,620.00
2019-05-15T06:40:33.175Z,620.00
2019-05-15T06:41:33.999Z,624.00
2019-05-15T06:42:33.106Z,620.00
2019-05-15T06:43:33.066Z,628.00
2019-05-15T06:44:33.032Z,628.00
2019-05-15T06:45:33.002Z,632.00
2019-05-15T06:46:32.967Z,636.00
2019-05-15T06:47:32.936Z,636.00
2019-05-15T06:48:32.891Z,640.00
2019-05-15T06:49:32.865Z,644.00
2019-05-15T06:50:32.820Z,648.00
2019-05-15T06:51:32.785Z,648.00
2019-05-15T06:52:32.751Z,648.00
2019-05-15T06:53:32.716Z,652.00
2019-05-15T06:54:32.682Z,656.00
2019-05-15T06:55:32.658Z,660.00
2019-05-15T06:56:32.618Z,664.00
2019-05-15T06:57:32.580Z,664.00
2019-05-15T06:58:32.547Z,668.00
2019-05-15T06:59:32.511Z,672.00
2019-05-15T07:00:32.473Z,676.00
2019-05-15T07:01:32.441Z,680.00
2019-05-15T07:02:32.408Z,680.00
2019-05-15T07:03:32.368Z,684.00
2019-05-15T07:04:32.333Z,688.00
2019-05-15T07:05:32.296Z,696.00
2019-05-15T07:06:32.279Z,700.00
2019-05-15T07:07:32.233Z,700.00
2019-05-15T07:08:32.196Z,708.00
2019-05-15T07:09:32.164Z,712.00
2019-05-15T07:10:32.151Z,712.00
2019-05-15T07:11:32.088Z,716.00
2019-05-15T07:12:32.062Z,720.00
2019-05-15T07:13:32.026Z,724.00
2019-05-15T07:14:31.989Z,724.00
2019-05-15T07:15:31.958Z,720.00
2019-05-15T07:16:31.929Z,732.00
2019-05-15T07:17:31.884Z,736.00
2019-05-15T07:18:31.863Z,740.00
2019-05-15T07:19:31.820Z,748.00
2019-05-15T07:20:31.778Z,748.00
2019-05-15T07:21:31.744Z,756.00
2019-05-15T07:22:31.714Z,760.00
2019-05-15T07:23:31.679Z,764.00
2019-05-15T07:24:31.691Z,768.00
2019-05-15T07:25:31.613Z,768.00
2019-05-15T07:26:31.577Z,772.00
2019-05-15T07:27:31.539Z,776.00
2019-05-15T07:28:31.513Z,780.00
2019-05-15T07:29:31.472Z,784.00
2019-05-15T07:30:31.459Z,788.00
2019-05-15T07:31:31.404Z,792.00
2019-05-15T07:32:31.373Z,796.00
2019-05-15T07:33:39.541Z,804.00
2019-05-15T07:34:31.336Z,804.00
2019-05-15T07:35:31.274Z,808.00
2019-05-15T07:36:31.241Z,812.00
2019-05-15T07:37:31.210Z,812.00
2019-05-15T07:38:31.160Z,812.00
2019-05-15T07:39:31.134Z,808.00
2019-05-15T07:40:31.101Z,820.00
2019-05-15T07:41:31.063Z,820.00
2019-05-15T07:42:31.036Z,824.00
2019-05-15T07:43:31.004Z,832.00
2019-05-15T07:44:30.974Z,832.00
2019-05-15T07:45:30.936Z,840.00
2019-05-15T07:46:30.898Z,840.00
2019-05-15T07:47:30.866Z,836.00
2019-05-15T07:48:30.826Z,840.00
2019-05-15T07:49:30.791Z,844.00
2019-05-15T07:50:30.765Z,848.00
2019-05-15T07:51:30.730Z,852.00
2019-05-15T07:52:30.690Z,860.00
2019-05-15T07:53:30.666Z,860.00
2019-05-15T07:54:30.635Z,864.00
2019-05-15T07:55:30.607Z,864.00
2019-05-15T07:56:30.560Z,868.00
2019-05-15T07:57:30.530Z,872.00
2019-05-15T07:58:30.501Z,876.00
2019-05-15T07:59:30.464Z,880.00
2019-05-15T08:00:30.431Z,880.00
2019-05-15T08:01:30.421Z,884.00
2019-05-15T08:02:30.370Z,888.00
2019-05-15T08:03:30.329Z,884.00
2019-05-15T08:04:32.919Z,892.00
2019-05-15T08:05:30.262Z,892.00
2019-05-15T08:06:30.235Z,892.00
2019-05-15T08:07:30.199Z,900.00
2019-05-15T08:08:30.167Z,900.00
2019-05-15T08:09:30.128Z,900.00
2019-05-15T08:10:30.093Z,904.00
2019-05-15T08:11:30.071Z,904.00
2019-05-15T08:12:30.029Z,908.00
2019-05-15T08:13:29.990Z,912.00
2019-05-15T08:14:29.967Z,916.00
2019-05-15T08:15:29.922Z,916.00
2019-05-15T08:16:29.895Z,920.00
2019-05-15T08:17:29.885Z,924.00
2019-05-15T08:18:29.825Z,928.00
2019-05-15T08:19:29.791Z,928.00
2019-05-15T08:20:29.776Z,932.00
2019-05-15T08:21:29.726Z,932.00
2019-05-15T08:22:29.693Z,936.00
2019-05-15T08:23:29.663Z,932.00
2019-05-15T08:24:29.996Z,936.00
2019-05-15T08:25:35.033Z,936.00
2019-05-15T08:26:29.568Z,936.00
2019-05-15T08:27:30.056Z,940.00
2019-05-15T08:28:29.496Z,940.00
2019-05-15T08:29:29.461Z,944.00
2019-05-15T08:30:29.425Z,944.00
2019-05-15T08:31:29.398Z,944.00
2019-05-15T08:32:29.386Z,948.00
2019-05-15T08:33:29.326Z,948.00
2019-05-15T08:34:29.290Z,948.00
2019-05-15T08:35:29.346Z,952.00
2019-05-15T08:36:31.263Z,956.00
2019-05-15T08:37:29.345Z,956.00
2019-05-15T08:38:29.169Z,956.00
2019-05-15T08:39:29.132Z,964.00
2019-05-15T08:40:29.093Z,960.00
2019-05-15T08:41:29.610Z,964.00
2019-05-15T08:42:31.947Z,968.00
2019-05-15T08:43:31.221Z,972.00
2019-05-15T08:44:29.501Z,976.00
2019-05-15T08:45:28.937Z,980.00
2019-05-15T08:46:28.897Z,980.00
2019-05-15T08:47:29.688Z,988.00
2019-05-15T08:48:28.837Z,992.00
2019-05-15T08:49:28.808Z,992.00
2019-05-15T08:50:28.860Z,1000.00
2019-05-15T08:51:28.729Z,1004.00
2019-05-15T08:52:28.699Z,1004.00
2019-05-15T08:53:28.895Z,1012.00
2019-05-15T08:54:29.183Z,1016.00
2019-05-15T08:55:28.608Z,1016.00
2019-05-15T08:56:29.054Z,1020.00
2019-05-15T08:57:29.035Z,1024.00
2019-05-15T08:58:29.078Z,1028.00
2019-05-15T08:59:29.429Z,1032.00
2019-05-15T09:00:29.452Z,1036.00
2019-05-15T09:01:28.878Z,1040.00
2019-05-15T09:02:28.900Z,1044.00
2019-05-15T09:03:28.740Z,1044.00
2019-05-15T09:04:34.418Z,1052.00
2019-05-15T09:05:28.369Z,1056.00
2019-05-15T09:06:29.206Z,1056.00
2019-05-15T09:07:28.743Z,1060.00
2019-05-15T09:08:29.370Z,1064.00
2019-05-15T09:09:28.774Z,1068.00
2019-05-15T09:10:28.766Z,1072.00
2019-05-15T09:11:28.434Z,1076.00
2019-05-15T09:12:29.459Z,1084.00
2019-05-15T09:13:29.241Z,1080.00
2019-05-15T09:14:28.622Z,1088.00
2019-05-15T09:15:29.344Z,1092.00
2019-05-15T09:16:28.107Z,1096.00
2019-05-15T09:17:28.561Z,1096.00
2019-05-15T09:18:28.364Z,1100.00
2019-05-15T09:19:28.151Z,1104.00
2019-05-15T09:20:28.732Z,1112.00
2019-05-15T09:21:28.357Z,1116.00
2019-05-15T09:22:29.193Z,1120.00
2019-05-15T09:23:28.887Z,1124.00
2019-05-15T09:24:28.646Z,1128.00
2019-05-15T09:25:28.771Z,1132.00
2019-05-15T09:26:28.402Z,1140.00
2019-05-15T09:27:27.929Z,1144.00
2019-05-15T09:28:29.599Z,1148.00
2019-05-15T09:29:28.533Z,1148.00
2019-05-15T09:30:28.615Z,1148.00
2019-05-15T09:31:28.445Z,1152.00
2019-05-15T09:32:28.524Z,1160.00
2019-05-15T09:33:28.586Z,1160.00
2019-05-15T09:34:44.929Z,1168.00
2019-05-15T09:35:27.797Z,1176.00
2019-05-15T09:36:28.839Z,1180.00
2019-05-15T09:37:28.692Z,1184.00
2019-05-15T09:38:28.990Z,1188.00
2019-05-15T09:39:28.657Z,1192.00
2019-05-15T09:40:41.852Z,1196.00
2019-05-15T09:41:28.610Z,1204.00
2019-05-15T09:42:28.619Z,1208.00
2019-05-15T09:43:28.525Z,1212.00
2019-05-15T09:44:28.360Z,1220.00
2019-05-15T09:45:28.609Z,1228.00
2019-05-15T09:46:28.975Z,1236.00
2019-05-15T09:47:29.492Z,1244.00
2019-05-15T09:48:28.636Z,1252.00
2019-05-15T09:49:28.589Z,1268.00
2019-05-15T09:50:28.203Z,1360.00
2019-05-15T09:51:29.023Z,1736.00
2019-05-15T09:52:29.333Z,2756.00
2019-05-15T09:53:28.502Z,4432.00
2019-05-15T09:54:29.108Z,5420.00
2019-05-15T09:55:28.543Z,5644.00
2019-05-15T09:56:29.080Z,5696.00
2019-05-15T09:57:29.981Z,5708.00
2019-05-15T09:58:26.579Z,5728.00
2019-05-15T09:59:28.133Z,5712.00
2019-05-15T10:00:29.083Z,5708.00
2019-05-15T10:01:28.467Z,5684.00
2019-05-15T10:02:28.380Z,5704.00
2019-05-15T10:03:28.275Z,5728.00
2019-05-15T10:04:28.675Z,5736.00
2019-05-15T10:05:28.130Z,5788.00
2019-05-15T10:06:28.514Z,5752.00
2019-05-15T10:07:28.531Z,5792.00
2019-05-15T10:08:29.056Z,5792.00
2019-05-15T10:09:28.480Z,5788.00
2019-05-15T10:10:28.315Z,5776.00
2019-05-15T10:11:28.712Z,5808.00
2019-05-15T10:12:31.353Z,5828.00
2019-05-15T10:13:26.107Z,5900.00
2019-05-15T10:14:26.078Z,5864.00
2019-05-15T10:15:26.052Z,5892.00
2019-05-15T10:16:26.014Z,5948.00
2019-05-15T10:17:25.990Z,5992.00
2019-05-15T10:18:28.250Z,5984.00
2019-05-15T10:19:25.925Z,5964.00
2019-05-15T10:20:25.902Z,5936.00
2019-05-15T10:21:31.492Z,5932.00
2019-05-15T10:22:28.153Z,5944.00
2019-05-15T10:23:25.818Z,5928.00
2019-05-15T10:24:27.987Z,5928.00
2019-05-15T10:25:28.026Z,5880.00
2019-05-15T10:26:28.390Z,5832.00
2019-05-15T10:27:25.702Z,5836.00
2019-05-15T10:28:25.678Z,5800.00
2019-05-15T10:29:28.017Z,5788.00
2019-05-15T10:30:28.243Z,5772.00
2019-05-15T10:31:28.234Z,5792.00
2019-05-15T10:32:25.559Z,5872.00
2019-05-15T10:33:25.549Z,5884.00
2019-05-15T10:34:25.501Z,5984.00
2019-05-15T10:35:31.073Z,6052.00
2019-05-15T10:36:27.835Z,6108.00
2019-05-15T10:37:28.263Z,6092.00
2019-05-15T10:38:25.391Z,6092.00
2019-05-15T10:39:25.375Z,6128.00
2019-05-15T10:40:25.344Z,6104.00
2019-05-15T10:41:25.320Z,6056.00
2019-05-15T10:42:25.294Z,6032.00
2019-05-15T10:43:25.256Z,5992.00
2019-05-15T10:44:25.235Z,6008.00
2019-05-15T10:45:25.204Z,5904.00
2019-05-15T10:46:25.184Z,5860.00
2019-05-15T10:47:25.156Z,5748.00
2019-05-15T10:48:25.122Z,5732.00
2019-05-15T10:49:25.096Z,5664.00
2019-05-15T10:50:25.066Z,5584.00
2019-05-15T10:51:25.045Z,5524.00
2019-05-15T10:52:25.022Z,5448.00
2019-05-15T10:53:24.991Z,5388.00
2019-05-15T10:54:24.965Z,5376.00
2019-05-15T10:55:24.948Z,5348.00
2019-05-15T10:56:24.907Z,5280.00
2019-05-15T10:57:24.880Z,5244.00
2019-05-15T10:58:24.857Z,5156.00
2019-05-15T10:59:24.832Z,5092.00
2019-05-15T11:00:24.805Z,5076.00
2019-05-15T11:01:24.775Z,5000.00
2019-05-15T11:02:24.764Z,4952.00
2019-05-15T11:03:24.732Z,4864.00
2019-05-15T11:04:24.699Z,4756.00
2019-05-15T11:05:40.281Z,4760.00
2019-05-15T11:06:24.659Z,4720.00
2019-05-15T11:07:24.616Z,4664.00
2019-05-15T11:08:24.596Z,4648.00
2019-05-15T11:09:24.561Z,4588.00
2019-05-15T11:10:24.536Z,4520.00
2019-05-15T11:11:24.508Z,4456.00
2019-05-15T11:12:24.483Z,4444.00
2019-05-15T11:13:24.462Z,4408.00
2019-05-15T11:14:24.434Z,4352.00
2019-05-15T11:15:24.399Z,4300.00
2019-05-15T11:16:24.376Z,4268.00
2019-05-15T11:17:24.350Z,4228.00
2019-05-15T11:18:24.332Z,4220.00
2019-05-15T11:19:24.293Z,4204.00
2019-05-15T11:20:24.271Z,4188.00
2019-05-15T11:21:24.237Z,4172.00
2019-05-15T11:22:24.215Z,4140.00
2019-05-15T11:23:24.191Z,4144.00
2019-05-15T11:24:24.164Z,4112.00
2019-05-15T11:25:24.127Z,4104.00
2019-05-15T11:26:24.097Z,4084.00
2019-05-15T11:27:24.074Z,4088.00
2019-05-15T11:28:24.162Z,4064.00
2019-05-15T11:29:24.033Z,4040.00
2019-05-15T11:30:23.997Z,4040.00
2019-05-15T11:31:24.950Z,4024.00
2019-05-15T11:32:23.946Z,4024.00
2019-05-15T11:33:23.924Z,4012.00
2019-05-15T11:34:23.900Z,4028.00
2019-05-15T11:35:23.863Z,4012.00
2019-05-15T11:36:23.837Z,4008.00
2019-05-15T11:37:23.816Z,4024.00
2019-05-15T11:38:23.792Z,4028.00
2019-05-15T11:39:23.759Z,4028.00
2019-05-15T11:40:23.723Z,4036.00
2019-05-15T11:41:23.703Z,4048.00
2019-05-15T11:42:23.675Z,4052.00
2019-05-15T11:43:23.660Z,4056.00
2019-05-15T11:44:23.623Z,4068.00
2019-05-15T11:45:23.604Z,4072.00
2019-05-15T11:46:25.893Z,4072.00
2019-05-15T11:47:23.540Z,4084.00
2019-05-15T11:48:23.514Z,4104.00
2019-05-15T11:49:23.484Z,4112.00
2019-05-15T11:50:23.471Z,4124.00
2019-05-15T11:51:23.448Z,4128.00
2019-05-15T11:52:23.419Z,4136.00
2019-05-15T11:53:23.380Z,4156.00
2019-05-15T11:54:23.357Z,4176.00
2019-05-15T11:55:23.341Z,4156.00
2019-05-15T11:56:23.312Z,4140.00
2019-05-15T11:57:37.168Z,4148.00
2019-05-15T11:58:23.253Z,4140.00
2019-05-15T11:59:23.229Z,4140.00
2019-05-15T12:00:27.152Z,4140.00
2019-05-15T12:01:23.197Z,4152.00
2019-05-15T12:02:23.154Z,4168.00
2019-05-15T12:03:24.928Z,4156.00
2019-05-15T12:04:30.450Z,4168.00
2019-05-15T12:05:23.073Z,4200.00
2019-05-15T12:06:23.250Z,4208.00
2019-05-15T12:07:23.019Z,4244.00
2019-05-15T12:08:22.999Z,4264.00
2019-05-15T12:09:22.974Z,4320.00
2019-05-15T12:10:22.935Z,4368.00
2019-05-15T12:11:33.488Z,4472.00
2019-05-15T12:12:22.902Z,4580.00
2019-05-15T12:13:22.865Z,4648.00
2019-05-15T12:14:22.840Z,4724.00
2019-05-15T12:15:22.814Z,4808.00
2019-05-15T12:16:22.792Z,4916.00
2019-05-15T12:17:22.754Z,4988.00
2019-05-15T12:18:22.758Z,5072.00
2019-05-15T12:19:22.713Z,5132.00
2019-05-15T12:20:22.684Z,5200.00
2019-05-15T12:21:22.652Z,5276.00
2019-05-15T12:22:22.626Z,5360.00
2019-05-15T12:23:22.598Z,5440.00
2019-05-15T12:24:22.577Z,5456.00
2019-05-15T12:25:22.542Z,5484.00
2019-05-15T12:26:22.521Z,5500.00
2019-05-15T12:27:22.497Z,5500.00
2019-05-15T12:28:22.479Z,5484.00
2019-05-15T12:29:22.435Z,5480.00
2019-05-15T12:30:22.429Z,5492.00
2019-05-15T12:31:24.728Z,5476.00
2019-05-15T12:32:31.192Z,5448.00
2019-05-15T12:33:22.323Z,5392.00
2019-05-15T12:34:22.312Z,5356.00
2019-05-15T12:35:22.282Z,5328.00